sensor_id;sensor_type;location;lat;lon;timestamp;temperature;humidity
47765;DHT22;33529;49.242;8.670;2024-03-02T00:00:22;6.00;99.90
47765;DHT22;33529;49.242;8.670;2024-03-02T00:02:49;6.00;99.90
47765;DHT22;33529;49.242;8.670;2024-03-02T00:05:21;6.00;99.90
47765;DHT22;33529;49.242;8.670;2024-03-02T00:07:53;5.90;99.90
47765;DHT22;33529;49.242;8.670;2024-03-02T00:10:38;6.00;99.90
47765;DHT22;33529;49.242;8.670;2024-03-02T00:13:09;5.90;99.90
47765;DHT22;33529;49.242;8.670;2024-03-02T00:16:03;5.90;99.90
47765;DHT22;33529;49.242;8.670;2024-03-02T00:18:35;5.90;99.90
47765;DHT22;33529;49.242;8.670;2024-03-02T00:21:03;6.00;99.90
47765;DHT22;33529;49.242;8.670;2024-03-02T00:23:33;6.00;99.90
47765;DHT22;33529;49.242;8.670;2024-03-02T00:26:02;6.00;99.90
47765;DHT22;33529;49.242;8.670;2024-03-02T00:28:34;6.00;99.90
47765;DHT22;33529;49.242;8.670;2024-03-02T00:31:11;6.00;99.90
47765;DHT22;33529;49.242;8.670;2024-03-02T00:33:46;6.00;99.90
47765;DHT22;33529;49.242;8.670;2024-03-02T00:36:16;5.90;99.90
47765;DHT22;33529;49.242;8.670;2024-03-02T00:41:25;5.90;99.90
47765;DHT22;33529;49.242;8.670;2024-03-02T00:44:04;5.90;99.90
47765;DHT22;33529;49.242;8.670;2024-03-02T00:46:42;5.90;99.90
47765;DHT22;33529;49.242;8.670;2024-03-02T00:51:37;5.80;99.90
47765;DHT22;33529;49.242;8.670;2024-03-02T00:54:08;5.80;99.90
47765;DHT22;33529;49.242;8.670;2024-03-02T00:56:36;5.70;99.90
47765;DHT22;33529;49.242;8.670;2024-03-02T00:59:02;5.70;99.90
47765;DHT22;33529;49.242;8.670;2024-03-02T01:01:29;5.70;99.90
47765;DHT22;33529;49.242;8.670;2024-03-02T01:03:56;5.70;99.90
47765;DHT22;33529;49.242;8.670;2024-03-02T01:06:23;5.70;99.90
47765;DHT22;33529;49.242;8.670;2024-03-02T01:08:51;5.60;99.90
47765;DHT22;33529;49.242;8.670;2024-03-02T01:11:20;5.60;99.90
47765;DHT22;33529;49.242;8.670;2024-03-02T01:13:51;5.60;99.90
47765;DHT22;33529;49.242;8.670;2024-03-02T01:16:19;5.60;99.90
47765;DHT22;33529;49.242;8.670;2024-03-02T01:18:46;5.50;99.90
47765;DHT22;33529;49.242;8.670;2024-03-02T01:21:14;5.50;99.90
47765;DHT22;33529;49.242;8.670;2024-03-02T01:23:41;5.50;99.90
47765;DHT22;33529;49.242;8.670;2024-03-02T01:26:08;5.50;99.90
47765;DHT22;33529;49.242;8.670;2024-03-02T01:28:35;5.50;99.90
47765;DHT22;33529;49.242;8.670;2024-03-02T01:31:02;5.40;99.90
47765;DHT22;33529;49.242;8.670;2024-03-02T01:33:29;5.40;99.90
47765;DHT22;33529;49.242;8.670;2024-03-02T01:35:56;5.40;99.90
47765;DHT22;33529;49.242;8.670;2024-03-02T01:38:23;5.30;99.90
47765;DHT22;33529;49.242;8.670;2024-03-02T01:40:50;5.40;99.90
47765;DHT22;33529;49.242;8.670;2024-03-02T01:43:18;5.40;99.90
47765;DHT22;33529;49.242;8.670;2024-03-02T01:45:45;5.40;99.90
47765;DHT22;33529;49.242;8.670;2024-03-02T01:48:11;5.50;99.90
47765;DHT22;33529;49.242;8.670;2024-03-02T01:50:39;5.40;99.90
47765;DHT22;33529;49.242;8.670;2024-03-02T01:53:06;5.40;99.90
47765;DHT22;33529;49.242;8.670;2024-03-02T01:55:33;5.40;99.90
47765;DHT22;33529;49.242;8.670;2024-03-02T01:58:01;5.40;99.90
47765;DHT22;33529;49.242;8.670;2024-03-02T02:00:28;5.40;99.90
47765;DHT22;33529;49.242;8.670;2024-03-02T02:02:55;5.40;99.90
47765;DHT22;33529;49.242;8.670;2024-03-02T02:05:22;5.40;99.90
47765;DHT22;33529;49.242;8.670;2024-03-02T02:07:49;5.40;99.90
47765;DHT22;33529;49.242;8.670;2024-03-02T02:10:16;5.40;99.90
47765;DHT22;33529;49.242;8.670;2024-03-02T02:12:44;5.40;99.90
47765;DHT22;33529;49.242;8.670;2024-03-02T02:15:27;5.30;99.90
47765;DHT22;33529;49.242;8.670;2024-03-02T02:17:55;5.30;99.90
47765;DHT22;33529;49.242;8.670;2024-03-02T02:20:23;5.30;99.90
47765;DHT22;33529;49.242;8.670;2024-03-02T02:23:00;5.30;99.90
47765;DHT22;33529;49.242;8.670;2024-03-02T02:25:28;5.20;99.90
47765;DHT22;33529;49.242;8.670;2024-03-02T02:27:56;5.20;99.90
47765;DHT22;33529;49.242;8.670;2024-03-02T02:30:29;5.20;99.90
47765;DHT22;33529;49.242;8.670;2024-03-02T02:32:56;5.20;99.90
47765;DHT22;33529;49.242;8.670;2024-03-02T02:35:23;5.10;99.90
47765;DHT22;33529;49.242;8.670;2024-03-02T02:37:54;5.10;99.90
47765;DHT22;33529;49.242;8.670;2024-03-02T02:40:22;5.10;99.90
47765;DHT22;33529;49.242;8.670;2024-03-02T02:42:49;5.10;99.90
47765;DHT22;33529;49.242;8.670;2024-03-02T02:45:18;5.10;99.90
47765;DHT22;33529;49.242;8.670;2024-03-02T02:47:45;5.10;99.90
47765;DHT22;33529;49.242;8.670;2024-03-02T02:50:12;5.10;99.90
47765;DHT22;33529;49.242;8.670;2024-03-02T02:52:40;5.10;99.90
47765;DHT22;33529;49.242;8.670;2024-03-02T02:55:10;5.10;99.90
47765;DHT22;33529;49.242;8.670;2024-03-02T02:57:40;5.00;99.90
47765;DHT22;33529;49.242;8.670;2024-03-02T03:00:10;5.00;99.90
47765;DHT22;33529;49.242;8.670;2024-03-02T03:02:43;5.10;99.90
47765;DHT22;33529;49.242;8.670;2024-03-02T03:05:12;5.00;99.90
47765;DHT22;33529;49.242;8.670;2024-03-02T03:07:40;5.00;99.90
47765;DHT22;33529;49.242;8.670;2024-03-02T03:10:07;5.00;99.90
47765;DHT22;33529;49.242;8.670;2024-03-02T03:12:35;4.90;99.90
47765;DHT22;33529;49.242;8.670;2024-03-02T03:15:03;4.90;99.90
47765;DHT22;33529;49.242;8.670;2024-03-02T03:17:31;4.90;99.90
47765;DHT22;33529;49.242;8.670;2024-03-02T03:19:58;4.90;99.90
47765;DHT22;33529;49.242;8.670;2024-03-02T03:22:25;4.90;99.90
47765;DHT22;33529;49.242;8.670;2024-03-02T03:24:52;4.80;99.90
47765;DHT22;33529;49.242;8.670;2024-03-02T03:27:20;4.80;99.90
47765;DHT22;33529;49.242;8.670;2024-03-02T03:29:47;4.80;99.90
47765;DHT22;33529;49.242;8.670;2024-03-02T03:32:14;4.80;99.90
47765;DHT22;33529;49.242;8.670;2024-03-02T03:34:41;4.90;99.90
47765;DHT22;33529;49.242;8.670;2024-03-02T03:37:08;4.80;99.90
47765;DHT22;33529;49.242;8.670;2024-03-02T03:39:35;4.80;99.90
47765;DHT22;33529;49.242;8.670;2024-03-02T03:42:03;4.80;99.90
47765;DHT22;33529;49.242;8.670;2024-03-02T03:44:30;4.80;99.90
47765;DHT22;33529;49.242;8.670;2024-03-02T03:46:57;4.80;99.90
47765;DHT22;33529;49.242;8.670;2024-03-02T03:49:23;4.80;99.90
47765;DHT22;33529;49.242;8.670;2024-03-02T03:51:50;4.80;99.90
47765;DHT22;33529;49.242;8.670;2024-03-02T03:54:17;4.80;99.90
47765;DHT22;33529;49.242;8.670;2024-03-02T03:56:44;4.80;99.90
47765;DHT22;33529;49.242;8.670;2024-03-02T03:59:11;4.80;99.90
47765;DHT22;33529;49.242;8.670;2024-03-02T04:01:38;4.80;99.90
47765;DHT22;33529;49.242;8.670;2024-03-02T04:04:05;4.80;99.90
47765;DHT22;33529;49.242;8.670;2024-03-02T04:06:32;4.90;99.90
47765;DHT22;33529;49.242;8.670;2024-03-02T04:08:59;4.90;99.90
47765;DHT22;33529;49.242;8.670;2024-03-02T04:11:26;4.80;99.90
47765;DHT22;33529;49.242;8.670;2024-03-02T04:13:52;4.80;99.90
47765;DHT22;33529;49.242;8.670;2024-03-02T04:16:23;4.80;99.90
47765;DHT22;33529;49.242;8.670;2024-03-02T04:18:50;4.80;99.90
47765;DHT22;33529;49.242;8.670;2024-03-02T04:21:17;4.80;99.90
47765;DHT22;33529;49.242;8.670;2024-03-02T04:23:43;4.80;99.90
47765;DHT22;33529;49.242;8.670;2024-03-02T04:26:10;4.80;99.90
47765;DHT22;33529;49.242;8.670;2024-03-02T04:28:38;4.80;99.90
47765;DHT22;33529;49.242;8.670;2024-03-02T04:31:05;4.80;99.90
47765;DHT22;33529;49.242;8.670;2024-03-02T04:33:32;4.80;99.90
47765;DHT22;33529;49.242;8.670;2024-03-02T04:35:59;4.80;99.90
47765;DHT22;33529;49.242;8.670;2024-03-02T04:38:25;4.80;99.90
47765;DHT22;33529;49.242;8.670;2024-03-02T04:40:52;4.80;99.90
47765;DHT22;33529;49.242;8.670;2024-03-02T04:43:19;4.80;99.90
47765;DHT22;33529;49.242;8.670;2024-03-02T04:45:46;4.80;99.90
47765;DHT22;33529;49.242;8.670;2024-03-02T04:48:13;4.80;99.90
47765;DHT22;33529;49.242;8.670;2024-03-02T04:50:41;4.70;99.90
47765;DHT22;33529;49.242;8.670;2024-03-02T04:53:08;4.70;99.90
47765;DHT22;33529;49.242;8.670;2024-03-02T04:55:34;4.60;99.90
47765;DHT22;33529;49.242;8.670;2024-03-02T04:58:01;4.60;99.90
47765;DHT22;33529;49.242;8.670;2024-03-02T05:00:28;4.60;99.90
47765;DHT22;33529;49.242;8.670;2024-03-02T05:02:55;4.60;99.90
47765;DHT22;33529;49.242;8.670;2024-03-02T05:05:22;4.60;99.90
47765;DHT22;33529;49.242;8.670;2024-03-02T05:07:49;4.50;99.90
47765;DHT22;33529;49.242;8.670;2024-03-02T05:10:16;4.50;99.90
47765;DHT22;33529;49.242;8.670;2024-03-02T05:12:43;4.50;99.90
47765;DHT22;33529;49.242;8.670;2024-03-02T05:15:11;4.60;99.90
47765;DHT22;33529;49.242;8.670;2024-03-02T05:17:42;4.50;99.90
47765;DHT22;33529;49.242;8.670;2024-03-02T05:20:12;4.40;99.90
47765;DHT22;33529;49.242;8.670;2024-03-02T05:22:38;4.40;99.90
47765;DHT22;33529;49.242;8.670;2024-03-02T05:25:07;4.40;99.90
47765;DHT22;33529;49.242;8.670;2024-03-02T05:27:34;4.30;99.90
47765;DHT22;33529;49.242;8.670;2024-03-02T05:30:01;4.30;99.90
47765;DHT22;33529;49.242;8.670;2024-03-02T05:32:28;4.30;99.90
47765;DHT22;33529;49.242;8.670;2024-03-02T05:34:55;4.20;99.90
47765;DHT22;33529;49.242;8.670;2024-03-02T05:37:22;4.20;99.90
47765;DHT22;33529;49.242;8.670;2024-03-02T05:39:49;4.30;99.90
47765;DHT22;33529;49.242;8.670;2024-03-02T05:42:16;4.20;99.90
47765;DHT22;33529;49.242;8.670;2024-03-02T05:44:45;4.20;99.90
47765;DHT22;33529;49.242;8.670;2024-03-02T05:47:12;4.20;99.90
47765;DHT22;33529;49.242;8.670;2024-03-02T05:49:39;4.10;99.90
47765;DHT22;33529;49.242;8.670;2024-03-02T05:52:06;4.10;99.90
47765;DHT22;33529;49.242;8.670;2024-03-02T05:54:33;4.10;99.90
47765;DHT22;33529;49.242;8.670;2024-03-02T05:57:00;4.10;99.90
47765;DHT22;33529;49.242;8.670;2024-03-02T05:59:44;4.10;99.90
47765;DHT22;33529;49.242;8.670;2024-03-02T06:02:11;4.00;99.90
47765;DHT22;33529;49.242;8.670;2024-03-02T06:04:37;4.00;99.90
47765;DHT22;33529;49.242;8.670;2024-03-02T06:07:04;4.00;99.90
47765;DHT22;33529;49.242;8.670;2024-03-02T06:09:32;4.00;99.90
47765;DHT22;33529;49.242;8.670;2024-03-02T06:11:58;4.00;99.90
47765;DHT22;33529;49.242;8.670;2024-03-02T06:14:25;4.00;99.90
47765;DHT22;33529;49.242;8.670;2024-03-02T06:16:52;3.90;99.90
47765;DHT22;33529;49.242;8.670;2024-03-02T06:19:19;4.00;99.90
47765;DHT22;33529;49.242;8.670;2024-03-02T06:21:46;4.10;99.90
47765;DHT22;33529;49.242;8.670;2024-03-02T06:24:13;4.10;99.90
47765;DHT22;33529;49.242;8.670;2024-03-02T06:26:40;4.10;99.90
47765;DHT22;33529;49.242;8.670;2024-03-02T06:29:06;4.00;99.90
47765;DHT22;33529;49.242;8.670;2024-03-02T06:31:34;4.10;99.90
47765;DHT22;33529;49.242;8.670;2024-03-02T06:34:01;4.10;99.90
47765;DHT22;33529;49.242;8.670;2024-03-02T06:36:30;4.10;99.90
47765;DHT22;33529;49.242;8.670;2024-03-02T06:38:57;4.10;99.90
47765;DHT22;33529;49.242;8.670;2024-03-02T06:41:23;4.10;99.90
47765;DHT22;33529;49.242;8.670;2024-03-02T06:43:50;4.20;99.90
47765;DHT22;33529;49.242;8.670;2024-03-02T06:46:26;4.20;99.90
47765;DHT22;33529;49.242;8.670;2024-03-02T06:48:53;4.20;99.90
47765;DHT22;33529;49.242;8.670;2024-03-02T06:51:20;4.20;99.90
47765;DHT22;33529;49.242;8.670;2024-03-02T06:53:47;4.30;99.90
47765;DHT22;33529;49.242;8.670;2024-03-02T06:56:14;4.30;99.90
47765;DHT22;33529;49.242;8.670;2024-03-02T06:58:40;4.30;99.90
47765;DHT22;33529;49.242;8.670;2024-03-02T07:01:09;4.40;99.90
47765;DHT22;33529;49.242;8.670;2024-03-02T07:03:36;4.30;99.90
47765;DHT22;33529;49.242;8.670;2024-03-02T07:06:06;4.40;99.90
47765;DHT22;33529;49.242;8.670;2024-03-02T07:08:33;4.50;99.90
47765;DHT22;33529;49.242;8.670;2024-03-02T07:11:01;4.50;99.90
47765;DHT22;33529;49.242;8.670;2024-03-02T07:13:28;4.60;99.90
47765;DHT22;33529;49.242;8.670;2024-03-02T07:15:54;4.60;99.90
47765;DHT22;33529;49.242;8.670;2024-03-02T07:18:30;4.60;99.90
47765;DHT22;33529;49.242;8.670;2024-03-02T07:20:57;4.60;99.90
47765;DHT22;33529;49.242;8.670;2024-03-02T07:23:26;4.70;99.90
47765;DHT22;33529;49.242;8.670;2024-03-02T07:25:54;4.70;99.90
47765;DHT22;33529;49.242;8.670;2024-03-02T07:28:26;4.70;99.90
47765;DHT22;33529;49.242;8.670;2024-03-02T07:31:04;4.70;99.90
47765;DHT22;33529;49.242;8.670;2024-03-02T07:33:31;4.70;99.90
47765;DHT22;33529;49.242;8.670;2024-03-02T07:35:59;4.70;99.90
47765;DHT22;33529;49.242;8.670;2024-03-02T07:38:31;4.70;99.90
47765;DHT22;33529;49.242;8.670;2024-03-02T07:40:58;4.80;99.90
47765;DHT22;33529;49.242;8.670;2024-03-02T07:43:25;4.90;99.90
47765;DHT22;33529;49.242;8.670;2024-03-02T07:45:52;4.90;99.90
47765;DHT22;33529;49.242;8.670;2024-03-02T07:48:19;5.00;99.90
47765;DHT22;33529;49.242;8.670;2024-03-02T07:50:46;5.00;99.90
47765;DHT22;33529;49.242;8.670;2024-03-02T07:53:14;5.10;99.90
47765;DHT22;33529;49.242;8.670;2024-03-02T07:55:41;5.30;99.90
47765;DHT22;33529;49.242;8.670;2024-03-02T07:58:08;5.40;99.90
47765;DHT22;33529;49.242;8.670;2024-03-02T08:00:36;5.50;99.90
47765;DHT22;33529;49.242;8.670;2024-03-02T08:03:03;5.60;99.90
47765;DHT22;33529;49.242;8.670;2024-03-02T08:05:30;5.70;99.90
47765;DHT22;33529;49.242;8.670;2024-03-02T08:07:57;5.80;99.90
47765;DHT22;33529;49.242;8.670;2024-03-02T08:10:23;5.90;99.90
47765;DHT22;33529;49.242;8.670;2024-03-02T08:12:50;6.00;99.90
47765;DHT22;33529;49.242;8.670;2024-03-02T08:15:17;6.10;99.90
47765;DHT22;33529;49.242;8.670;2024-03-02T08:17:44;6.10;99.90
47765;DHT22;33529;49.242;8.670;2024-03-02T08:20:15;6.30;99.90
47765;DHT22;33529;49.242;8.670;2024-03-02T08:22:42;6.50;99.90
47765;DHT22;33529;49.242;8.670;2024-03-02T08:25:09;6.60;99.90
47765;DHT22;33529;49.242;8.670;2024-03-02T08:27:37;6.80;99.90
47765;DHT22;33529;49.242;8.670;2024-03-02T08:30:05;6.90;99.90
47765;DHT22;33529;49.242;8.670;2024-03-02T08:32:34;7.00;99.90
47765;DHT22;33529;49.242;8.670;2024-03-02T08:35:04;7.20;99.90
47765;DHT22;33529;49.242;8.670;2024-03-02T08:37:31;7.20;99.90
47765;DHT22;33529;49.242;8.670;2024-03-02T08:39:58;7.30;99.90
47765;DHT22;33529;49.242;8.670;2024-03-02T08:42:25;7.40;99.90
47765;DHT22;33529;49.242;8.670;2024-03-02T08:44:52;7.50;99.90
47765;DHT22;33529;49.242;8.670;2024-03-02T08:47:19;7.60;99.90
47765;DHT22;33529;49.242;8.670;2024-03-02T08:49:46;7.80;99.90
47765;DHT22;33529;49.242;8.670;2024-03-02T08:52:13;7.90;99.90
47765;DHT22;33529;49.242;8.670;2024-03-02T08:54:39;7.90;99.90
47765;DHT22;33529;49.242;8.670;2024-03-02T08:57:06;8.00;99.90
47765;DHT22;33529;49.242;8.670;2024-03-02T08:59:34;8.10;99.90
47765;DHT22;33529;49.242;8.670;2024-03-02T09:02:01;8.20;99.90
47765;DHT22;33529;49.242;8.670;2024-03-02T09:04:28;8.30;99.90
47765;DHT22;33529;49.242;8.670;2024-03-02T09:07:00;8.50;99.90
47765;DHT22;33529;49.242;8.670;2024-03-02T09:09:27;8.60;99.90
47765;DHT22;33529;49.242;8.670;2024-03-02T09:11:54;8.60;99.90
47765;DHT22;33529;49.242;8.670;2024-03-02T09:14:22;8.70;99.90
47765;DHT22;33529;49.242;8.670;2024-03-02T09:16:48;8.70;99.90
47765;DHT22;33529;49.242;8.670;2024-03-02T09:19:16;8.80;99.90
47765;DHT22;33529;49.242;8.670;2024-03-02T09:21:43;9.00;99.90
47765;DHT22;33529;49.242;8.670;2024-03-02T09:24:10;9.00;99.90
47765;DHT22;33529;49.242;8.670;2024-03-02T09:26:39;9.10;99.90
47765;DHT22;33529;49.242;8.670;2024-03-02T09:29:06;9.30;99.90
47765;DHT22;33529;49.242;8.670;2024-03-02T09:31:33;9.50;99.90
47765;DHT22;33529;49.242;8.670;2024-03-02T09:34:05;9.50;99.90
47765;DHT22;33529;49.242;8.670;2024-03-02T09:36:32;9.60;99.90
47765;DHT22;33529;49.242;8.670;2024-03-02T09:38:59;9.70;99.90
47765;DHT22;33529;49.242;8.670;2024-03-02T09:41:26;9.70;99.90
47765;DHT22;33529;49.242;8.670;2024-03-02T09:43:54;9.80;99.90
47765;DHT22;33529;49.242;8.670;2024-03-02T09:46:21;9.90;99.90
47765;DHT22;33529;49.242;8.670;2024-03-02T09:48:48;10.10;99.90
47765;DHT22;33529;49.242;8.670;2024-03-02T09:51:15;10.10;99.90
47765;DHT22;33529;49.242;8.670;2024-03-02T09:53:47;10.20;99.90
47765;DHT22;33529;49.242;8.670;2024-03-02T09:56:14;10.30;99.90
47765;DHT22;33529;49.242;8.670;2024-03-02T09:58:42;10.40;99.90
47765;DHT22;33529;49.242;8.670;2024-03-02T10:01:10;10.50;99.90
47765;DHT22;33529;49.242;8.670;2024-03-02T10:03:38;10.50;99.90
47765;DHT22;33529;49.242;8.670;2024-03-02T10:06:24;10.60;99.90
47765;DHT22;33529;49.242;8.670;2024-03-02T10:08:52;10.60;99.90
47765;DHT22;33529;49.242;8.670;2024-03-02T10:11:33;10.70;99.90
47765;DHT22;33529;49.242;8.670;2024-03-02T10:14:09;10.80;99.90
47765;DHT22;33529;49.242;8.670;2024-03-02T10:16:44;10.80;99.90
47765;DHT22;33529;49.242;8.670;2024-03-02T10:19:22;10.90;99.90
47765;DHT22;33529;49.242;8.670;2024-03-02T10:21:54;10.90;99.90
47765;DHT22;33529;49.242;8.670;2024-03-02T10:24:22;11.00;99.90
47765;DHT22;33529;49.242;8.670;2024-03-02T10:26:50;11.10;99.90
47765;DHT22;33529;49.242;8.670;2024-03-02T10:29:18;11.20;99.90
47765;DHT22;33529;49.242;8.670;2024-03-02T10:31:47;11.30;99.90
47765;DHT22;33529;49.242;8.670;2024-03-02T10:34:14;11.30;99.90
47765;DHT22;33529;49.242;8.670;2024-03-02T10:36:43;11.40;99.90
47765;DHT22;33529;49.242;8.670;2024-03-02T10:39:13;11.40;99.90
47765;DHT22;33529;49.242;8.670;2024-03-02T10:41:41;11.40;99.90
47765;DHT22;33529;49.242;8.670;2024-03-02T10:44:09;11.50;99.90
47765;DHT22;33529;49.242;8.670;2024-03-02T10:46:37;11.60;99.90
47765;DHT22;33529;49.242;8.670;2024-03-02T10:49:05;11.70;99.90
47765;DHT22;33529;49.242;8.670;2024-03-02T10:51:34;11.80;99.90
47765;DHT22;33529;49.242;8.670;2024-03-02T10:54:04;11.90;99.90
47765;DHT22;33529;49.242;8.670;2024-03-02T10:56:40;12.00;99.90
47765;DHT22;33529;49.242;8.670;2024-03-02T10:59:36;12.10;99.90
47765;DHT22;33529;49.242;8.670;2024-03-02T11:02:04;12.20;99.90
47765;DHT22;33529;49.242;8.670;2024-03-02T11:04:32;12.40;99.90
47765;DHT22;33529;49.242;8.670;2024-03-02T11:07:07;12.50;99.90
47765;DHT22;33529;49.242;8.670;2024-03-02T11:09:36;12.50;99.90
47765;DHT22;33529;49.242;8.670;2024-03-02T11:12:29;12.50;99.90
47765;DHT22;33529;49.242;8.670;2024-03-02T11:14:56;12.50;99.90
47765;DHT22;33529;49.242;8.670;2024-03-02T11:17:24;12.50;99.90
47765;DHT22;33529;49.242;8.670;2024-03-02T11:19:52;12.60;99.90
47765;DHT22;33529;49.242;8.670;2024-03-02T11:22:19;12.70;99.90
47765;DHT22;33529;49.242;8.670;2024-03-02T11:24:51;12.70;99.90
47765;DHT22;33529;49.242;8.670;2024-03-02T11:33:08;12.80;99.90
47765;DHT22;33529;49.242;8.670;2024-03-02T11:35:41;12.80;99.90
47765;DHT22;33529;49.242;8.670;2024-03-02T11:38:10;12.80;99.90
47765;DHT22;33529;49.242;8.670;2024-03-02T11:40:39;12.70;99.90
47765;DHT22;33529;49.242;8.670;2024-03-02T11:43:07;12.80;99.90
47765;DHT22;33529;49.242;8.670;2024-03-02T11:45:38;12.90;99.90
47765;DHT22;33529;49.242;8.670;2024-03-02T11:48:14;13.00;99.90
47765;DHT22;33529;49.242;8.670;2024-03-02T11:50:42;12.90;99.90
47765;DHT22;33529;49.242;8.670;2024-03-02T11:53:12;13.00;99.90
47765;DHT22;33529;49.242;8.670;2024-03-02T11:55:40;13.00;99.90
47765;DHT22;33529;49.242;8.670;2024-03-02T11:58:08;13.00;99.90
47765;DHT22;33529;49.242;8.670;2024-03-02T12:00:35;13.00;99.90
47765;DHT22;33529;49.242;8.670;2024-03-02T12:03:07;13.10;99.90
47765;DHT22;33529;49.242;8.670;2024-03-02T12:05:35;13.10;99.90
47765;DHT22;33529;49.242;8.670;2024-03-02T12:08:04;13.10;99.90
47765;DHT22;33529;49.242;8.670;2024-03-02T12:10:32;13.10;99.90
47765;DHT22;33529;49.242;8.670;2024-03-02T12:13:01;13.20;99.90
47765;DHT22;33529;49.242;8.670;2024-03-02T12:15:33;13.20;99.90
47765;DHT22;33529;49.242;8.670;2024-03-02T12:18:01;13.20;99.90
47765;DHT22;33529;49.242;8.670;2024-03-02T12:20:30;13.20;99.90
47765;DHT22;33529;49.242;8.670;2024-03-02T12:23:01;13.30;99.90
47765;DHT22;33529;49.242;8.670;2024-03-02T12:25:30;13.40;99.90
47765;DHT22;33529;49.242;8.670;2024-03-02T12:27:58;13.50;99.90
47765;DHT22;33529;49.242;8.670;2024-03-02T12:30:29;13.50;99.90
47765;DHT22;33529;49.242;8.670;2024-03-02T12:32:57;13.30;99.90
47765;DHT22;33529;49.242;8.670;2024-03-02T12:35:25;13.40;99.90
47765;DHT22;33529;49.242;8.670;2024-03-02T12:37:54;13.50;99.90
47765;DHT22;33529;49.242;8.670;2024-03-02T12:40:21;13.50;99.90
47765;DHT22;33529;49.242;8.670;2024-03-02T12:42:50;13.50;99.90
47765;DHT22;33529;49.242;8.670;2024-03-02T12:45:18;13.50;99.90
47765;DHT22;33529;49.242;8.670;2024-03-02T12:47:52;13.60;99.90
47765;DHT22;33529;49.242;8.670;2024-03-02T12:50:20;13.70;99.90
47765;DHT22;33529;49.242;8.670;2024-03-02T12:52:53;13.80;99.90
47765;DHT22;33529;49.242;8.670;2024-03-02T12:55:22;13.90;99.90
47765;DHT22;33529;49.242;8.670;2024-03-02T12:57:51;13.90;99.90
47765;DHT22;33529;49.242;8.670;2024-03-02T13:00:20;13.80;99.90
47765;DHT22;33529;49.242;8.670;2024-03-02T13:02:48;13.90;99.90
47765;DHT22;33529;49.242;8.670;2024-03-02T13:05:18;13.90;99.90
47765;DHT22;33529;49.242;8.670;2024-03-02T13:07:47;14.00;99.90
47765;DHT22;33529;49.242;8.670;2024-03-02T13:10:14;14.00;99.90
47765;DHT22;33529;49.242;8.670;2024-03-02T13:12:42;13.90;99.90
47765;DHT22;33529;49.242;8.670;2024-03-02T13:15:09;13.90;99.90
47765;DHT22;33529;49.242;8.670;2024-03-02T13:17:41;13.90;99.90
47765;DHT22;33529;49.242;8.670;2024-03-02T13:20:08;13.90;99.90
47765;DHT22;33529;49.242;8.670;2024-03-02T13:22:37;14.00;99.90
47765;DHT22;33529;49.242;8.670;2024-03-02T13:25:05;14.00;99.90
47765;DHT22;33529;49.242;8.670;2024-03-02T13:27:33;14.00;99.90
47765;DHT22;33529;49.242;8.670;2024-03-02T13:30:02;14.00;99.90
47765;DHT22;33529;49.242;8.670;2024-03-02T13:32:29;14.00;99.90
47765;DHT22;33529;49.242;8.670;2024-03-02T13:34:58;14.20;99.90
47765;DHT22;33529;49.242;8.670;2024-03-02T13:37:24;14.20;99.90
47765;DHT22;33529;49.242;8.670;2024-03-02T13:39:51;14.10;99.90
47765;DHT22;33529;49.242;8.670;2024-03-02T13:42:18;14.20;99.90
47765;DHT22;33529;49.242;8.670;2024-03-02T13:44:46;14.10;99.90
47765;DHT22;33529;49.242;8.670;2024-03-02T13:47:15;14.30;99.90
47765;DHT22;33529;49.242;8.670;2024-03-02T13:49:42;14.30;99.90
47765;DHT22;33529;49.242;8.670;2024-03-02T13:52:14;14.40;99.90
47765;DHT22;33529;49.242;8.670;2024-03-02T13:54:42;14.50;99.90
47765;DHT22;33529;49.242;8.670;2024-03-02T13:57:10;14.60;99.90
47765;DHT22;33529;49.242;8.670;2024-03-02T13:59:38;14.50;99.90
47765;DHT22;33529;49.242;8.670;2024-03-02T14:02:05;14.60;99.90
47765;DHT22;33529;49.242;8.670;2024-03-02T14:04:34;14.50;99.90
47765;DHT22;33529;49.242;8.670;2024-03-02T14:07:02;14.40;99.90
47765;DHT22;33529;49.242;8.670;2024-03-02T14:09:29;14.40;99.90
47765;DHT22;33529;49.242;8.670;2024-03-02T14:11:57;14.30;99.90
47765;DHT22;33529;49.242;8.670;2024-03-02T14:14:26;14.20;99.90
47765;DHT22;33529;49.242;8.670;2024-03-02T14:16:57;14.20;99.90
47765;DHT22;33529;49.242;8.670;2024-03-02T14:19:27;14.20;99.90
47765;DHT22;33529;49.242;8.670;2024-03-02T14:21:54;14.30;99.90
47765;DHT22;33529;49.242;8.670;2024-03-02T14:24:21;14.40;99.90
47765;DHT22;33529;49.242;8.670;2024-03-02T14:26:52;14.50;99.90
47765;DHT22;33529;49.242;8.670;2024-03-02T14:29:28;14.50;99.70
47765;DHT22;33529;49.242;8.670;2024-03-02T14:31:55;14.50;99.80
47765;DHT22;33529;49.242;8.670;2024-03-02T14:34:23;14.60;99.30
47765;DHT22;33529;49.242;8.670;2024-03-02T14:36:50;14.70;98.50
47765;DHT22;33529;49.242;8.670;2024-03-02T14:39:18;14.60;98.50
47765;DHT22;33529;49.242;8.670;2024-03-02T14:41:46;14.60;99.20
47765;DHT22;33529;49.242;8.670;2024-03-02T14:44:13;14.70;99.20
47765;DHT22;33529;49.242;8.670;2024-03-02T14:46:40;14.80;98.80
47765;DHT22;33529;49.242;8.670;2024-03-02T14:49:09;14.70;98.50
47765;DHT22;33529;49.242;8.670;2024-03-02T14:51:37;14.80;98.80
47765;DHT22;33529;49.242;8.670;2024-03-02T14:54:04;14.80;98.20
47765;DHT22;33529;49.242;8.670;2024-03-02T14:56:32;14.70;98.50
47765;DHT22;33529;49.242;8.670;2024-03-02T14:58:59;14.70;98.10
47765;DHT22;33529;49.242;8.670;2024-03-02T15:01:25;14.70;98.80
47765;DHT22;33529;49.242;8.670;2024-03-02T15:03:52;14.60;98.80
47765;DHT22;33529;49.242;8.670;2024-03-02T15:06:19;14.50;99.20
47765;DHT22;33529;49.242;8.670;2024-03-02T15:08:46;14.50;99.50
47765;DHT22;33529;49.242;8.670;2024-03-02T15:11:14;14.50;98.90
47765;DHT22;33529;49.242;8.670;2024-03-02T15:13:41;14.40;99.30
47765;DHT22;33529;49.242;8.670;2024-03-02T15:16:09;14.30;98.60
47765;DHT22;33529;49.242;8.670;2024-03-02T15:18:36;14.20;99.10
47765;DHT22;33529;49.242;8.670;2024-03-02T15:21:03;14.10;99.00
47765;DHT22;33529;49.242;8.670;2024-03-02T15:23:30;14.10;98.90
47765;DHT22;33529;49.242;8.670;2024-03-02T15:25:57;14.00;99.20
47765;DHT22;33529;49.242;8.670;2024-03-02T15:28:24;13.90;99.30
47765;DHT22;33529;49.242;8.670;2024-03-02T15:30:51;13.80;99.00
47765;DHT22;33529;49.242;8.670;2024-03-02T15:33:22;13.80;99.20
47765;DHT22;33529;49.242;8.670;2024-03-02T15:35:52;13.80;99.80
47765;DHT22;33529;49.242;8.670;2024-03-02T15:38:22;13.60;99.90
47765;DHT22;33529;49.242;8.670;2024-03-02T15:40:59;13.70;99.50
47765;DHT22;33529;49.242;8.670;2024-03-02T15:43:25;13.60;99.90
47765;DHT22;33529;49.242;8.670;2024-03-02T15:45:53;13.60;99.30
47765;DHT22;33529;49.242;8.670;2024-03-02T15:48:20;13.50;99.90
47765;DHT22;33529;49.242;8.670;2024-03-02T15:50:47;13.40;99.90
47765;DHT22;33529;49.242;8.670;2024-03-02T15:53:13;13.40;99.90
47765;DHT22;33529;49.242;8.670;2024-03-02T15:55:40;13.40;99.90
47765;DHT22;33529;49.242;8.670;2024-03-02T15:58:07;13.30;99.90